Verkhotur'ye, Russia
Current Conditions -  °F | °C
As of 11:00 PM on Thursday 29 Jan 2015 (Local Time) from USSS Reporting Station
Clear Clear  
Wind Chill: -7°   Ceiling: Unl
Heat Index:   Visibility: 6mi
Dew Point: -9°   Wind: 7mph
Humidity: 52%   Direction: 190°S
Pressure: 30.15"   Gusts: NA
Location:  58.87°N, 60.78°E
Report Text: USSS 291800Z 19003MPS CAVOK M15/M23 Q1021 76820350 NOSIG RMKQFE745
Loading
Personal Weather Stations






























Interactive Weather Map New forecast layout! Learn more

10-Day Weather Forecast

Advertisements
Track Severe Weather on mobile